KCNI

Cherokee County Airport

Canton, Georgia, USA
METAR KCNI 171435Z AUTO 30008G14KT 10SM CLR 08/05 A3019 RMK AO2
Observed Flight Rules
Dec-17 @ 14:35 UTC (23 minutes ago) Visual Flight Rules
Wind Visibility Clouds
300° at 8 knots
 Gusting to 14 knots
10 miles
  • Clear skies
Temperatures Readings
Current 8°C / 46°F
Dewpoint 5°C / 41°F
Humidity 82%
Altimeter 30.19" Hg
Pressure 1022 hPa
Elevation 372
METAR KCNI 171435Z AUTO 30008G14KT 10SM CLR 08/05 A3019 RMK AO2
Observed Flight Rules
Dec-17 @ 14:35 UTC
(23 minutes ago)
VFR
Wind Visibility
300° at 8 knots
 Gusting to 14 knots
10 miles
Clouds
  • Clear skies
Temperature Dewpoint
8°C / 46°F 5°C / 41°F
Humidity Altimeter Pressure
82% 30.19" Hg 1022 hPa